sensor_id;sensor_type;location;lat;lon;timestamp;temperature;humidity
45837;DHT22;31548;51.420;-0.040;2023-06-14T00:01:59;18.20;74.10
45837;DHT22;31548;51.420;-0.040;2023-06-14T00:04:27;18.10;73.60
45837;DHT22;31548;51.420;-0.040;2023-06-14T00:06:56;18.10;74.00
45837;DHT22;31548;51.420;-0.040;2023-06-14T00:09:24;18.20;76.70
45837;DHT22;31548;51.420;-0.040;2023-06-14T00:11:51;18.00;74.40
45837;DHT22;31548;51.420;-0.040;2023-06-14T00:14:19;18.00;73.50
45837;DHT22;31548;51.420;-0.040;2023-06-14T00:16:47;18.00;75.60
45837;DHT22;31548;51.420;-0.040;2023-06-14T00:19:15;18.00;77.30
45837;DHT22;31548;51.420;-0.040;2023-06-14T00:21:43;17.90;74.50
45837;DHT22;31548;51.420;-0.040;2023-06-14T00:24:11;17.90;76.60
45837;DHT22;31548;51.420;-0.040;2023-06-14T00:26:39;17.80;76.10
45837;DHT22;31548;51.420;-0.040;2023-06-14T00:29:06;17.80;76.20
45837;DHT22;31548;51.420;-0.040;2023-06-14T00:31:35;17.80;77.10
45837;DHT22;31548;51.420;-0.040;2023-06-14T00:34:03;17.70;77.70
45837;DHT22;31548;51.420;-0.040;2023-06-14T00:36:30;17.50;78.30
45837;DHT22;31548;51.420;-0.040;2023-06-14T00:38:58;17.50;78.90
45837;DHT22;31548;51.420;-0.040;2023-06-14T00:41:25;17.30;80.30
45837;DHT22;31548;51.420;-0.040;2023-06-14T00:43:54;17.30;81.50
45837;DHT22;31548;51.420;-0.040;2023-06-14T00:46:24;17.20;81.70
45837;DHT22;31548;51.420;-0.040;2023-06-14T00:48:55;17.20;82.80
45837;DHT22;31548;51.420;-0.040;2023-06-14T00:51:24;17.10;83.40
45837;DHT22;31548;51.420;-0.040;2023-06-14T00:53:52;17.20;84.30
45837;DHT22;31548;51.420;-0.040;2023-06-14T00:56:19;17.00;84.40
45837;DHT22;31548;51.420;-0.040;2023-06-14T00:58:50;17.00;85.80
45837;DHT22;31548;51.420;-0.040;2023-06-14T01:01:19;17.00;85.90
45837;DHT22;31548;51.420;-0.040;2023-06-14T01:03:47;17.00;86.10
45837;DHT22;31548;51.420;-0.040;2023-06-14T01:06:19;16.90;87.20
45837;DHT22;31548;51.420;-0.040;2023-06-14T01:12:02;16.80;89.00
45837;DHT22;31548;51.420;-0.040;2023-06-14T01:14:34;16.70;90.70
45837;DHT22;31548;51.420;-0.040;2023-06-14T01:17:02;16.60;91.70
45837;DHT22;31548;51.420;-0.040;2023-06-14T01:19:30;16.50;92.80
45837;DHT22;31548;51.420;-0.040;2023-06-14T01:22:01;16.40;93.80
45837;DHT22;31548;51.420;-0.040;2023-06-14T01:24:29;16.20;94.70
45837;DHT22;31548;51.420;-0.040;2023-06-14T01:27:01;16.20;95.50
45837;DHT22;31548;51.420;-0.040;2023-06-14T01:29:30;16.10;96.00
45837;DHT22;31548;51.420;-0.040;2023-06-14T01:32:00;16.10;96.40
45837;DHT22;31548;51.420;-0.040;2023-06-14T01:34:30;16.10;96.90
45837;DHT22;31548;51.420;-0.040;2023-06-14T01:37:00;16.10;97.40
45837;DHT22;31548;51.420;-0.040;2023-06-14T01:39:28;16.00;98.40
45837;DHT22;31548;51.420;-0.040;2023-06-14T01:41:57;16.10;98.70
45837;DHT22;31548;51.420;-0.040;2023-06-14T01:44:25;16.00;99.00
45837;DHT22;31548;51.420;-0.040;2023-06-14T01:46:54;16.10;99.30
45837;DHT22;31548;51.420;-0.040;2023-06-14T01:49:22;16.10;99.80
45837;DHT22;31548;51.420;-0.040;2023-06-14T01:51:50;16.10;99.90
45837;DHT22;31548;51.420;-0.040;2023-06-14T01:54:18;16.10;99.90
45837;DHT22;31548;51.420;-0.040;2023-06-14T01:56:45;16.10;99.90
45837;DHT22;31548;51.420;-0.040;2023-06-14T01:59:13;15.90;99.90
45837;DHT22;31548;51.420;-0.040;2023-06-14T02:01:41;15.90;99.90
45837;DHT22;31548;51.420;-0.040;2023-06-14T02:04:08;15.80;99.90
45837;DHT22;31548;51.420;-0.040;2023-06-14T02:06:37;15.70;99.90
45837;DHT22;31548;51.420;-0.040;2023-06-14T02:09:05;15.60;99.90
45837;DHT22;31548;51.420;-0.040;2023-06-14T02:11:33;15.60;99.90
45837;DHT22;31548;51.420;-0.040;2023-06-14T02:14:00;15.60;99.90
45837;DHT22;31548;51.420;-0.040;2023-06-14T02:16:29;15.60;99.90
45837;DHT22;31548;51.420;-0.040;2023-06-14T02:18:57;15.50;99.90
45837;DHT22;31548;51.420;-0.040;2023-06-14T02:21:25;15.60;99.90
45837;DHT22;31548;51.420;-0.040;2023-06-14T02:23:52;15.60;99.90
45837;DHT22;31548;51.420;-0.040;2023-06-14T02:26:20;15.60;99.90
45837;DHT22;31548;51.420;-0.040;2023-06-14T02:28:48;15.60;99.90
45837;DHT22;31548;51.420;-0.040;2023-06-14T02:31:16;15.60;99.90
45837;DHT22;31548;51.420;-0.040;2023-06-14T02:33:43;15.60;99.90
45837;DHT22;31548;51.420;-0.040;2023-06-14T02:36:11;15.60;99.90
45837;DHT22;31548;51.420;-0.040;2023-06-14T02:38:39;15.60;99.90
45837;DHT22;31548;51.420;-0.040;2023-06-14T02:41:08;15.60;99.90
45837;DHT22;31548;51.420;-0.040;2023-06-14T02:43:36;15.50;99.90
45837;DHT22;31548;51.420;-0.040;2023-06-14T02:46:06;15.60;99.90
45837;DHT22;31548;51.420;-0.040;2023-06-14T02:48:34;15.60;99.90
45837;DHT22;31548;51.420;-0.040;2023-06-14T02:51:02;15.40;99.90
45837;DHT22;31548;51.420;-0.040;2023-06-14T02:53:29;15.40;99.90
45837;DHT22;31548;51.420;-0.040;2023-06-14T02:55:57;15.50;99.90
45837;DHT22;31548;51.420;-0.040;2023-06-14T02:58:25;15.50;99.90
45837;DHT22;31548;51.420;-0.040;2023-06-14T03:00:53;15.50;99.90
45837;DHT22;31548;51.420;-0.040;2023-06-14T03:03:22;15.30;99.90
45837;DHT22;31548;51.420;-0.040;2023-06-14T03:05:55;15.30;99.90
45837;DHT22;31548;51.420;-0.040;2023-06-14T03:08:27;15.30;99.90
45837;DHT22;31548;51.420;-0.040;2023-06-14T03:11:00;15.20;99.90
45837;DHT22;31548;51.420;-0.040;2023-06-14T03:13:29;15.30;99.90
45837;DHT22;31548;51.420;-0.040;2023-06-14T03:16:00;15.20;99.90
45837;DHT22;31548;51.420;-0.040;2023-06-14T03:18:32;15.20;99.90
45837;DHT22;31548;51.420;-0.040;2023-06-14T03:21:04;15.10;99.90
45837;DHT22;31548;51.420;-0.040;2023-06-14T03:23:34;15.20;99.90
45837;DHT22;31548;51.420;-0.040;2023-06-14T03:26:03;15.10;99.90
45837;DHT22;31548;51.420;-0.040;2023-06-14T03:28:31;14.90;99.90
45837;DHT22;31548;51.420;-0.040;2023-06-14T03:30:59;14.90;99.90
45837;DHT22;31548;51.420;-0.040;2023-06-14T03:33:30;14.80;99.90
45837;DHT22;31548;51.420;-0.040;2023-06-14T03:35:58;14.70;99.90
45837;DHT22;31548;51.420;-0.040;2023-06-14T03:38:27;14.70;99.90
45837;DHT22;31548;51.420;-0.040;2023-06-14T03:40:55;14.70;99.90
45837;DHT22;31548;51.420;-0.040;2023-06-14T03:43:22;14.60;99.90
45837;DHT22;31548;51.420;-0.040;2023-06-14T03:45:50;14.60;99.90
45837;DHT22;31548;51.420;-0.040;2023-06-14T03:48:19;14.70;99.90
45837;DHT22;31548;51.420;-0.040;2023-06-14T03:50:46;14.60;99.90
45837;DHT22;31548;51.420;-0.040;2023-06-14T03:53:14;14.70;99.90
45837;DHT22;31548;51.420;-0.040;2023-06-14T03:55:45;14.80;99.90
45837;DHT22;31548;51.420;-0.040;2023-06-14T03:58:15;14.80;99.90
45837;DHT22;31548;51.420;-0.040;2023-06-14T04:00:43;14.80;99.90
45837;DHT22;31548;51.420;-0.040;2023-06-14T04:03:10;14.80;99.90
45837;DHT22;31548;51.420;-0.040;2023-06-14T04:05:41;14.80;99.90
45837;DHT22;31548;51.420;-0.040;2023-06-14T04:08:09;14.80;99.90
45837;DHT22;31548;51.420;-0.040;2023-06-14T04:10:37;14.70;99.90
45837;DHT22;31548;51.420;-0.040;2023-06-14T04:13:05;14.70;99.90
45837;DHT22;31548;51.420;-0.040;2023-06-14T04:15:34;14.60;99.90
45837;DHT22;31548;51.420;-0.040;2023-06-14T04:18:02;14.50;99.90
45837;DHT22;31548;51.420;-0.040;2023-06-14T04:20:31;14.50;99.90
45837;DHT22;31548;51.420;-0.040;2023-06-14T04:23:11;14.50;99.90
45837;DHT22;31548;51.420;-0.040;2023-06-14T04:25:39;14.50;99.90
45837;DHT22;31548;51.420;-0.040;2023-06-14T04:28:07;14.50;99.90
45837;DHT22;31548;51.420;-0.040;2023-06-14T04:30:36;14.50;99.90
45837;DHT22;31548;51.420;-0.040;2023-06-14T04:33:06;14.50;99.90
45837;DHT22;31548;51.420;-0.040;2023-06-14T04:35:33;14.50;99.90
45837;DHT22;31548;51.420;-0.040;2023-06-14T04:38:03;14.50;99.90
45837;DHT22;31548;51.420;-0.040;2023-06-14T04:40:38;14.50;99.90
45837;DHT22;31548;51.420;-0.040;2023-06-14T04:43:13;14.50;99.90
45837;DHT22;31548;51.420;-0.040;2023-06-14T04:45:43;14.50;99.90
45837;DHT22;31548;51.420;-0.040;2023-06-14T04:48:14;14.50;99.90
45837;DHT22;31548;51.420;-0.040;2023-06-14T04:50:41;14.60;99.90
45837;DHT22;31548;51.420;-0.040;2023-06-14T04:53:10;14.60;99.90
45837;DHT22;31548;51.420;-0.040;2023-06-14T04:55:38;14.60;99.90
45837;DHT22;31548;51.420;-0.040;2023-06-14T04:58:06;14.60;99.90
45837;DHT22;31548;51.420;-0.040;2023-06-14T05:00:34;14.70;99.90
45837;DHT22;31548;51.420;-0.040;2023-06-14T05:03:02;14.70;99.90
45837;DHT22;31548;51.420;-0.040;2023-06-14T05:05:34;14.80;99.90
45837;DHT22;31548;51.420;-0.040;2023-06-14T05:08:01;14.80;99.90
45837;DHT22;31548;51.420;-0.040;2023-06-14T05:10:28;14.90;99.90
45837;DHT22;31548;51.420;-0.040;2023-06-14T05:12:56;14.80;99.90
45837;DHT22;31548;51.420;-0.040;2023-06-14T05:15:24;14.80;99.90
45837;DHT22;31548;51.420;-0.040;2023-06-14T05:17:53;14.80;99.90
45837;DHT22;31548;51.420;-0.040;2023-06-14T05:20:24;14.70;99.90
45837;DHT22;31548;51.420;-0.040;2023-06-14T05:22:55;14.80;99.90
45837;DHT22;31548;51.420;-0.040;2023-06-14T05:25:23;14.80;99.90
45837;DHT22;31548;51.420;-0.040;2023-06-14T05:27:51;14.80;99.90
45837;DHT22;31548;51.420;-0.040;2023-06-14T05:30:18;14.80;99.90
45837;DHT22;31548;51.420;-0.040;2023-06-14T05:32:45;14.80;99.90
45837;DHT22;31548;51.420;-0.040;2023-06-14T05:35:13;14.80;99.90
45837;DHT22;31548;51.420;-0.040;2023-06-14T05:37:41;14.80;99.90
45837;DHT22;31548;51.420;-0.040;2023-06-14T05:40:09;14.80;99.90
45837;DHT22;31548;51.420;-0.040;2023-06-14T05:42:37;14.90;99.90
45837;DHT22;31548;51.420;-0.040;2023-06-14T05:45:04;15.00;99.90
45837;DHT22;31548;51.420;-0.040;2023-06-14T05:47:33;15.00;99.90
45837;DHT22;31548;51.420;-0.040;2023-06-14T05:50:00;15.00;99.90
45837;DHT22;31548;51.420;-0.040;2023-06-14T05:52:29;15.00;99.90
45837;DHT22;31548;51.420;-0.040;2023-06-14T05:54:56;15.00;99.90
45837;DHT22;31548;51.420;-0.040;2023-06-14T05:57:24;14.90;99.90
45837;DHT22;31548;51.420;-0.040;2023-06-14T05:59:51;14.90;99.90
45837;DHT22;31548;51.420;-0.040;2023-06-14T06:02:18;15.00;99.90
45837;DHT22;31548;51.420;-0.040;2023-06-14T06:04:46;15.00;99.90
45837;DHT22;31548;51.420;-0.040;2023-06-14T06:07:13;15.10;99.90
45837;DHT22;31548;51.420;-0.040;2023-06-14T06:09:41;15.20;99.90
45837;DHT22;31548;51.420;-0.040;2023-06-14T06:12:08;15.30;99.90
45837;DHT22;31548;51.420;-0.040;2023-06-14T06:14:37;15.30;99.90
45837;DHT22;31548;51.420;-0.040;2023-06-14T06:17:05;15.30;99.90
45837;DHT22;31548;51.420;-0.040;2023-06-14T06:19:32;15.40;99.90
45837;DHT22;31548;51.420;-0.040;2023-06-14T06:21:59;15.40;99.90
45837;DHT22;31548;51.420;-0.040;2023-06-14T06:24:27;15.40;99.90
45837;DHT22;31548;51.420;-0.040;2023-06-14T06:26:54;15.50;99.90
45837;DHT22;31548;51.420;-0.040;2023-06-14T06:29:22;15.50;99.90
45837;DHT22;31548;51.420;-0.040;2023-06-14T06:31:50;15.60;99.90
45837;DHT22;31548;51.420;-0.040;2023-06-14T06:34:17;15.60;99.90
45837;DHT22;31548;51.420;-0.040;2023-06-14T06:36:44;15.70;99.90
45837;DHT22;31548;51.420;-0.040;2023-06-14T06:39:12;15.80;99.90
45837;DHT22;31548;51.420;-0.040;2023-06-14T06:41:39;16.00;99.90
45837;DHT22;31548;51.420;-0.040;2023-06-14T06:44:07;15.90;99.90
45837;DHT22;31548;51.420;-0.040;2023-06-14T06:46:35;16.00;99.90
45837;DHT22;31548;51.420;-0.040;2023-06-14T06:49:07;16.00;99.90
45837;DHT22;31548;51.420;-0.040;2023-06-14T06:51:35;16.10;99.90
45837;DHT22;31548;51.420;-0.040;2023-06-14T06:54:04;16.20;99.90
45837;DHT22;31548;51.420;-0.040;2023-06-14T06:56:33;16.30;99.90
45837;DHT22;31548;51.420;-0.040;2023-06-14T06:59:00;16.40;99.90
45837;DHT22;31548;51.420;-0.040;2023-06-14T07:01:28;16.50;99.90
45837;DHT22;31548;51.420;-0.040;2023-06-14T07:03:56;16.50;99.90
45837;DHT22;31548;51.420;-0.040;2023-06-14T07:06:23;16.60;99.90
45837;DHT22;31548;51.420;-0.040;2023-06-14T07:08:54;16.60;99.90
45837;DHT22;31548;51.420;-0.040;2023-06-14T07:11:21;16.70;99.90
45837;DHT22;31548;51.420;-0.040;2023-06-14T07:13:49;16.80;99.90
45837;DHT22;31548;51.420;-0.040;2023-06-14T07:16:16;16.80;99.90
45837;DHT22;31548;51.420;-0.040;2023-06-14T07:18:44;16.90;99.90
45837;DHT22;31548;51.420;-0.040;2023-06-14T07:21:11;16.90;99.90
45837;DHT22;31548;51.420;-0.040;2023-06-14T07:23:38;17.00;99.90
45837;DHT22;31548;51.420;-0.040;2023-06-14T07:26:06;17.00;99.90
45837;DHT22;31548;51.420;-0.040;2023-06-14T07:28:33;17.10;99.90
45837;DHT22;31548;51.420;-0.040;2023-06-14T07:31:01;17.10;99.90
45837;DHT22;31548;51.420;-0.040;2023-06-14T07:33:28;17.10;99.90
45837;DHT22;31548;51.420;-0.040;2023-06-14T07:35:56;17.20;99.90
45837;DHT22;31548;51.420;-0.040;2023-06-14T07:38:23;17.20;99.90
45837;DHT22;31548;51.420;-0.040;2023-06-14T07:40:50;17.30;99.90
45837;DHT22;31548;51.420;-0.040;2023-06-14T07:43:18;17.30;99.90
45837;DHT22;31548;51.420;-0.040;2023-06-14T07:45:48;17.40;99.90
45837;DHT22;31548;51.420;-0.040;2023-06-14T07:48:28;17.60;99.90
45837;DHT22;31548;51.420;-0.040;2023-06-14T07:50:56;17.60;99.90
45837;DHT22;31548;51.420;-0.040;2023-06-14T07:53:24;17.70;99.90
45837;DHT22;31548;51.420;-0.040;2023-06-14T07:55:53;17.80;99.90
45837;DHT22;31548;51.420;-0.040;2023-06-14T07:58:20;17.90;99.90
45837;DHT22;31548;51.420;-0.040;2023-06-14T08:00:47;17.90;99.90
45837;DHT22;31548;51.420;-0.040;2023-06-14T08:03:15;18.00;99.90
45837;DHT22;31548;51.420;-0.040;2023-06-14T08:05:42;18.10;99.90
45837;DHT22;31548;51.420;-0.040;2023-06-14T08:08:10;18.20;99.90
45837;DHT22;31548;51.420;-0.040;2023-06-14T08:10:37;18.20;99.90
45837;DHT22;31548;51.420;-0.040;2023-06-14T08:13:04;18.40;99.90
45837;DHT22;31548;51.420;-0.040;2023-06-14T08:15:32;18.50;99.90
45837;DHT22;31548;51.420;-0.040;2023-06-14T08:18:00;18.50;99.90
45837;DHT22;31548;51.420;-0.040;2023-06-14T08:20:28;18.60;99.90
45837;DHT22;31548;51.420;-0.040;2023-06-14T08:22:57;18.80;99.90
45837;DHT22;31548;51.420;-0.040;2023-06-14T08:25:25;18.80;99.90
45837;DHT22;31548;51.420;-0.040;2023-06-14T08:27:53;19.00;99.90
45837;DHT22;31548;51.420;-0.040;2023-06-14T08:30:20;19.00;99.90
45837;DHT22;31548;51.420;-0.040;2023-06-14T08:32:48;19.20;99.90
45837;DHT22;31548;51.420;-0.040;2023-06-14T08:35:24;19.30;99.90
45837;DHT22;31548;51.420;-0.040;2023-06-14T08:37:52;19.40;99.90
45837;DHT22;31548;51.420;-0.040;2023-06-14T08:40:22;19.50;99.90
45837;DHT22;31548;51.420;-0.040;2023-06-14T08:42:52;19.70;99.90
45837;DHT22;31548;51.420;-0.040;2023-06-14T08:45:23;19.80;99.90
45837;DHT22;31548;51.420;-0.040;2023-06-14T08:47:54;19.80;99.90
45837;DHT22;31548;51.420;-0.040;2023-06-14T08:50:29;19.80;99.90
45837;DHT22;31548;51.420;-0.040;2023-06-14T08:53:00;20.00;99.90
45837;DHT22;31548;51.420;-0.040;2023-06-14T08:55:31;20.10;99.90
45837;DHT22;31548;51.420;-0.040;2023-06-14T08:58:04;20.10;99.90
45837;DHT22;31548;51.420;-0.040;2023-06-14T09:00:32;20.30;99.90
45837;DHT22;31548;51.420;-0.040;2023-06-14T09:03:00;20.20;99.90
45837;DHT22;31548;51.420;-0.040;2023-06-14T09:05:28;20.40;99.90
45837;DHT22;31548;51.420;-0.040;2023-06-14T09:07:56;20.50;99.90
45837;DHT22;31548;51.420;-0.040;2023-06-14T09:10:31;20.70;99.90
45837;DHT22;31548;51.420;-0.040;2023-06-14T09:13:05;20.80;99.90
45837;DHT22;31548;51.420;-0.040;2023-06-14T09:15:35;20.90;99.90
45837;DHT22;31548;51.420;-0.040;2023-06-14T09:18:03;21.00;99.90
45837;DHT22;31548;51.420;-0.040;2023-06-14T09:20:31;21.20;99.90
45837;DHT22;31548;51.420;-0.040;2023-06-14T09:22:58;21.20;99.90
45837;DHT22;31548;51.420;-0.040;2023-06-14T09:25:26;21.30;99.90
45837;DHT22;31548;51.420;-0.040;2023-06-14T09:28:09;21.40;99.90
45837;DHT22;31548;51.420;-0.040;2023-06-14T09:30:38;21.60;99.90
45837;DHT22;31548;51.420;-0.040;2023-06-14T09:33:06;21.70;99.90
45837;DHT22;31548;51.420;-0.040;2023-06-14T09:35:34;21.80;99.90
45837;DHT22;31548;51.420;-0.040;2023-06-14T09:38:01;22.00;99.90
45837;DHT22;31548;51.420;-0.040;2023-06-14T09:40:34;22.00;99.90
45837;DHT22;31548;51.420;-0.040;2023-06-14T09:43:06;22.20;99.90
45837;DHT22;31548;51.420;-0.040;2023-06-14T09:45:39;22.30;99.90
45837;DHT22;31548;51.420;-0.040;2023-06-14T09:48:07;22.50;99.90
45837;DHT22;31548;51.420;-0.040;2023-06-14T09:50:39;22.70;99.90
45837;DHT22;31548;51.420;-0.040;2023-06-14T09:53:07;22.90;99.90
45837;DHT22;31548;51.420;-0.040;2023-06-14T09:55:38;23.00;99.90
45837;DHT22;31548;51.420;-0.040;2023-06-14T09:58:09;23.10;99.90
45837;DHT22;31548;51.420;-0.040;2023-06-14T10:00:37;23.20;99.90
45837;DHT22;31548;51.420;-0.040;2023-06-14T10:03:14;23.30;99.90
45837;DHT22;31548;51.420;-0.040;2023-06-14T10:05:45;23.50;99.90
45837;DHT22;31548;51.420;-0.040;2023-06-14T10:08:16;23.50;99.90
45837;DHT22;31548;51.420;-0.040;2023-06-14T10:10:45;23.60;99.90
45837;DHT22;31548;51.420;-0.040;2023-06-14T10:13:13;23.80;99.90
45837;DHT22;31548;51.420;-0.040;2023-06-14T10:24:13;24.30;99.90
45837;DHT22;31548;51.420;-0.040;2023-06-14T10:27:01;24.50;99.90
45837;DHT22;31548;51.420;-0.040;2023-06-14T10:29:29;24.70;99.90
45837;DHT22;31548;51.420;-0.040;2023-06-14T10:32:00;24.80;99.90
45837;DHT22;31548;51.420;-0.040;2023-06-14T10:34:30;24.80;99.90
45837;DHT22;31548;51.420;-0.040;2023-06-14T10:37:06;25.00;99.90
45837;DHT22;31548;51.420;-0.040;2023-06-14T10:39:41;25.20;99.90
45837;DHT22;31548;51.420;-0.040;2023-06-14T10:42:10;25.30;99.70
45837;DHT22;31548;51.420;-0.040;2023-06-14T10:44:39;25.50;99.90
45837;DHT22;31548;51.420;-0.040;2023-06-14T10:47:32;25.70;99.60
45837;DHT22;31548;51.420;-0.040;2023-06-14T10:50:05;25.80;99.20
45837;DHT22;31548;51.420;-0.040;2023-06-14T10:52:34;26.00;98.00
45837;DHT22;31548;51.420;-0.040;2023-06-14T10:55:11;26.10;98.10
45837;DHT22;31548;51.420;-0.040;2023-06-14T10:57:49;26.30;98.40
45837;DHT22;31548;51.420;-0.040;2023-06-14T11:00:23;26.30;98.80
45837;DHT22;31548;51.420;-0.040;2023-06-14T11:08:30;26.80;97.30
45837;DHT22;31548;51.420;-0.040;2023-06-14T11:11:09;26.90;97.20
45837;DHT22;31548;51.420;-0.040;2023-06-14T11:13:38;27.00;97.80
45837;DHT22;31548;51.420;-0.040;2023-06-14T11:16:13;26.90;97.10
45837;DHT22;31548;51.420;-0.040;2023-06-14T11:18:42;27.10;97.40
45837;DHT22;31548;51.420;-0.040;2023-06-14T11:21:09;27.30;97.40
45837;DHT22;31548;51.420;-0.040;2023-06-14T11:23:37;27.30;96.10
45837;DHT22;31548;51.420;-0.040;2023-06-14T11:26:04;27.20;95.30
45837;DHT22;31548;51.420;-0.040;2023-06-14T11:28:39;27.50;96.20
45837;DHT22;31548;51.420;-0.040;2023-06-14T11:31:07;27.60;95.50
45837;DHT22;31548;51.420;-0.040;2023-06-14T11:33:35;27.80;96.00
45837;DHT22;31548;51.420;-0.040;2023-06-14T11:36:03;27.90;95.60
45837;DHT22;31548;51.420;-0.040;2023-06-14T11:38:35;28.10;95.60
45837;DHT22;31548;51.420;-0.040;2023-06-14T11:41:03;28.10;94.90
45837;DHT22;31548;51.420;-0.040;2023-06-14T11:43:31;28.30;95.30
45837;DHT22;31548;51.420;-0.040;2023-06-14T11:46:00;28.30;94.60
45837;DHT22;31548;51.420;-0.040;2023-06-14T11:48:42;28.40;94.70
45837;DHT22;31548;51.420;-0.040;2023-06-14T11:51:09;28.70;95.60
45837;DHT22;31548;51.420;-0.040;2023-06-14T11:53:38;28.80;94.60
45837;DHT22;31548;51.420;-0.040;2023-06-14T11:56:07;28.80;93.90
45837;DHT22;31548;51.420;-0.040;2023-06-14T11:58:34;28.80;94.70
45837;DHT22;31548;51.420;-0.040;2023-06-14T12:01:05;28.90;94.10
45837;DHT22;31548;51.420;-0.040;2023-06-14T12:03:34;29.00;94.50
45837;DHT22;31548;51.420;-0.040;2023-06-14T12:06:07;29.20;94.30
45837;DHT22;31548;51.420;-0.040;2023-06-14T12:08:36;29.50;94.10
45837;DHT22;31548;51.420;-0.040;2023-06-14T12:11:12;29.30;93.00
45837;DHT22;31548;51.420;-0.040;2023-06-14T12:13:41;29.40;92.70
45837;DHT22;31548;51.420;-0.040;2023-06-14T12:16:10;29.50;92.70
45837;DHT22;31548;51.420;-0.040;2023-06-14T12:18:40;29.90;93.30
45837;DHT22;31548;51.420;-0.040;2023-06-14T12:21:09;30.00;91.70
45837;DHT22;31548;51.420;-0.040;2023-06-14T12:26:18;30.20;91.90
45837;DHT22;31548;51.420;-0.040;2023-06-14T12:28:47;30.20;92.50
45837;DHT22;31548;51.420;-0.040;2023-06-14T12:31:16;30.30;92.20
45837;DHT22;31548;51.420;-0.040;2023-06-14T12:33:44;30.40;92.00
45837;DHT22;31548;51.420;-0.040;2023-06-14T12:36:13;30.70;92.20
45837;DHT22;31548;51.420;-0.040;2023-06-14T12:38:41;30.70;91.60
45837;DHT22;31548;51.420;-0.040;2023-06-14T12:41:08;30.70;91.00
45837;DHT22;31548;51.420;-0.040;2023-06-14T12:43:37;30.70;91.00
45837;DHT22;31548;51.420;-0.040;2023-06-14T12:46:04;30.70;90.70
45837;DHT22;31548;51.420;-0.040;2023-06-14T12:48:32;30.60;90.80
45837;DHT22;31548;51.420;-0.040;2023-06-14T12:51:01;30.80;91.40
45837;DHT22;31548;51.420;-0.040;2023-06-14T12:53:29;30.80;91.10
45837;DHT22;31548;51.420;-0.040;2023-06-14T12:55:56;30.90;88.80
45837;DHT22;31548;51.420;-0.040;2023-06-14T12:58:24;31.00;88.20
45837;DHT22;31548;51.420;-0.040;2023-06-14T13:00:52;31.10;87.70
45837;DHT22;31548;51.420;-0.040;2023-06-14T13:03:20;31.40;90.90
45837;DHT22;31548;51.420;-0.040;2023-06-14T13:06:23;31.50;89.30
45837;DHT22;31548;51.420;-0.040;2023-06-14T13:08:52;31.60;86.60
45837;DHT22;31548;51.420;-0.040;2023-06-14T13:11:22;31.70;86.40
45837;DHT22;31548;51.420;-0.040;2023-06-14T13:13:50;31.50;86.60
45837;DHT22;31548;51.420;-0.040;2023-06-14T13:16:17;31.60;83.50
45837;DHT22;31548;51.420;-0.040;2023-06-14T13:18:45;31.40;83.60
45837;DHT22;31548;51.420;-0.040;2023-06-14T13:21:13;31.60;83.30
45837;DHT22;31548;51.420;-0.040;2023-06-14T13:23:41;31.60;82.40
45837;DHT22;31548;51.420;-0.040;2023-06-14T13:26:09;31.40;83.50
45837;DHT22;31548;51.420;-0.040;2023-06-14T13:28:37;31.70;80.70
45837;DHT22;31548;51.420;-0.040;2023-06-14T13:31:04;31.60;80.30
45837;DHT22;31548;51.420;-0.040;2023-06-14T13:33:32;31.60;81.80
45837;DHT22;31548;51.420;-0.040;2023-06-14T13:35:59;31.40;80.20
45837;DHT22;31548;51.420;-0.040;2023-06-14T13:38:27;31.70;82.70
45837;DHT22;31548;51.420;-0.040;2023-06-14T13:40:54;31.90;82.10
45837;DHT22;31548;51.420;-0.040;2023-06-14T13:43:22;32.00;81.40
45837;DHT22;31548;51.420;-0.040;2023-06-14T13:45:50;32.00;80.30
45837;DHT22;31548;51.420;-0.040;2023-06-14T13:48:18;32.00;82.80
45837;DHT22;31548;51.420;-0.040;2023-06-14T13:50:45;32.10;81.90
45837;DHT22;31548;51.420;-0.040;2023-06-14T13:53:13;32.40;81.30
45837;DHT22;31548;51.420;-0.040;2023-06-14T13:55:41;31.90;80.10
45837;DHT22;31548;51.420;-0.040;2023-06-14T13:58:09;32.10;79.90
45837;DHT22;31548;51.420;-0.040;2023-06-14T14:00:36;32.10;78.70
45837;DHT22;31548;51.420;-0.040;2023-06-14T14:03:07;32.00;78.00
45837;DHT22;31548;51.420;-0.040;2023-06-14T14:05:36;32.20;80.40
45837;DHT22;31548;51.420;-0.040;2023-06-14T14:08:03;32.40;77.40
45837;DHT22;31548;51.420;-0.040;2023-06-14T14:10:31;32.50;78.10
45837;DHT22;31548;51.420;-0.040;2023-06-14T14:12:58;32.50;76.30
45837;DHT22;31548;51.420;-0.040;2023-06-14T14:15:26;32.40;74.80
45837;DHT22;31548;51.420;-0.040;2023-06-14T14:17:55;32.50;76.20
45837;DHT22;31548;51.420;-0.040;2023-06-14T14:20:24;32.70;74.50
45837;DHT22;31548;51.420;-0.040;2023-06-14T14:22:52;32.60;81.50
45837;DHT22;31548;51.420;-0.040;2023-06-14T14:25:20;32.60;74.80
45837;DHT22;31548;51.420;-0.040;2023-06-14T14:27:47;32.60;74.50
45837;DHT22;31548;51.420;-0.040;2023-06-14T14:30:15;32.60;74.50
45837;DHT22;31548;51.420;-0.040;2023-06-14T14:32:44;32.70;76.30
45837;DHT22;31548;51.420;-0.040;2023-06-14T14:35:12;32.90;73.90
45837;DHT22;31548;51.420;-0.040;2023-06-14T14:37:39;33.00;76.60
45837;DHT22;31548;51.420;-0.040;2023-06-14T14:40:07;32.80;74.40
45837;DHT22;31548;51.420;-0.040;2023-06-14T14:42:37;33.00;75.50
45837;DHT22;31548;51.420;-0.040;2023-06-14T14:45:05;33.00;75.70
45837;DHT22;31548;51.420;-0.040;2023-06-14T14:47:33;33.10;73.20
45837;DHT22;31548;51.420;-0.040;2023-06-14T14:50:00;33.00;75.10
45837;DHT22;31548;51.420;-0.040;2023-06-14T14:52:29;33.00;73.30
45837;DHT22;31548;51.420;-0.040;2023-06-14T14:54:56;33.10;73.10
45837;DHT22;31548;51.420;-0.040;2023-06-14T14:57:24;33.30;73.60
45837;DHT22;31548;51.420;-0.040;2023-06-14T14:59:52;33.40;71.40
45837;DHT22;31548;51.420;-0.040;2023-06-14T15:02:19;33.20;71.80
45837;DHT22;31548;51.420;-0.040;2023-06-14T15:04:47;33.50;72.60
45837;DHT22;31548;51.420;-0.040;2023-06-14T15:07:14;33.50;71.10
45837;DHT22;31548;51.420;-0.040;2023-06-14T15:09:42;33.70;71.90
45837;DHT22;31548;51.420;-0.040;2023-06-14T15:12:11;33.70;70.30
45837;DHT22;31548;51.420;-0.040;2023-06-14T15:14:38;33.80;70.60
45837;DHT22;31548;51.420;-0.040;2023-06-14T15:17:06;33.90;70.10
45837;DHT22;31548;51.420;-0.040;2023-06-14T15:19:34;34.00;71.90
45837;DHT22;31548;51.420;-0.040;2023-06-14T15:22:04;34.20;70.40
45837;DHT22;31548;51.420;-0.040;2023-06-14T15:24:33;34.40;71.20
45837;DHT22;31548;51.420;-0.040;2023-06-14T15:27:11;34.30;69.10
45837;DHT22;31548;51.420;-0.040;2023-06-14T15:29:41;34.40;68.90
45837;DHT22;31548;51.420;-0.040;2023-06-14T15:32:10;34.60;68.20
45837;DHT22;31548;51.420;-0.040;2023-06-14T15:34:38;34.70;68.50
45837;DHT22;31548;51.420;-0.040;2023-06-14T15:37:07;35.00;68.00
45837;DHT22;31548;51.420;-0.040;2023-06-14T15:39:35;35.00;67.50
45837;DHT22;31548;51.420;-0.040;2023-06-14T15:42:03;35.20;65.70
45837;DHT22;31548;51.420;-0.040;2023-06-14T15:44:30;35.30;65.90
45837;DHT22;31548;51.420;-0.040;2023-06-14T15:46:58;35.50;66.10